Time;durP1;ratioP1;P1;durP2;ratioP2;P2;SDS_P1;SDS_P2;PMS_P1;PMS_P2;Temp;Humidity;BMP_temperature;BMP_pressure;BME280_temperature;BME280_humidity;BME280_pressure;Samples;Min_cycle;Max_cycle;Signal;HPM_P1;HPM_P2
2023/12/16 00:01:23;;;;;;;;;;;8.50;92.40;;;;;;6219750;23;19919;-83
2023/12/16 00:03:48;;;;;;;;;;;8.50;92.40;;;;;;6246174;23;19899;-83
2023/12/16 00:06:15;;;;;;;;;;;8.50;92.50;;;;;;6220028;23;20298;-82
2023/12/16 00:08:40;;;;;;;;;;;8.50;92.50;;;;;;6246675;23;19900;-83
2023/12/16 00:11:06;;;;;;;;;;;8.50;92.70;;;;;;6246539;23;19899;-83
2023/12/16 00:13:31;;;;;;;;;;;8.50;92.60;;;;;;6219526;23;19906;-83
2023/12/16 00:15:57;;;;;;;;;;;8.50;92.50;;;;;;6246334;23;19935;-83
2023/12/16 00:18:23;;;;;;;;;;;8.50;92.50;;;;;;6220065;23;19899;-83
2023/12/16 00:20:48;;;;;;;;;;;8.50;92.50;;;;;;6246546;23;19903;-83
2023/12/16 00:23:14;;;;;;;;;;;8.50;92.40;;;;;;6246542;23;19900;-83
2023/12/16 00:25:39;;;;;;;;;;;8.50;92.40;;;;;;6219538;23;20368;-83
2023/12/16 00:28:05;;;;;;;;;;;8.50;92.30;;;;;;6246258;23;19983;-82
2023/12/16 00:30:30;;;;;;;;;;;8.50;92.30;;;;;;6246429;23;19945;-82
2023/12/16 00:32:56;;;;;;;;;;;8.40;92.50;;;;;;6246648;23;19900;-83
2023/12/16 00:35:21;;;;;;;;;;;8.40;92.60;;;;;;6246372;23;19900;-82
2023/12/16 00:37:47;;;;;;;;;;;8.40;92.70;;;;;;6219859;23;19899;-82
2023/12/16 00:40:12;;;;;;;;;;;8.40;92.70;;;;;;6245855;23;19904;-82
2023/12/16 00:42:38;;;;;;;;;;;8.50;92.70;;;;;;6243602;23;19904;-82
2023/12/16 00:45:04;;;;;;;;;;;8.40;92.60;;;;;;6243268;23;19904;-82
2023/12/16 00:47:29;;;;;;;;;;;8.50;92.50;;;;;;6245407;23;20301;-83
2023/12/16 00:49:55;;;;;;;;;;;8.40;92.50;;;;;;6245518;23;19899;-83
2023/12/16 00:52:21;;;;;;;;;;;8.40;92.70;;;;;;6219147;23;19899;-82
2023/12/16 00:54:46;;;;;;;;;;;8.40;92.70;;;;;;6246153;23;19904;-82
2023/12/16 00:57:12;;;;;;;;;;;8.40;92.70;;;;;;6245986;23;19935;-82
2023/12/16 00:59:37;;;;;;;;;;;8.40;92.70;;;;;;6246280;23;20333;-83
2023/12/16 01:02:04;;;;;;;;;;;8.30;92.80;;;;;;6246177;22;19915;-82
2023/12/16 01:04:29;;;;;;;;;;;8.30;92.80;;;;;;6246499;23;19899;-83
2023/12/16 01:06:55;;;;;;;;;;;8.40;92.80;;;;;;6246590;23;19953;-84
2023/12/16 01:09:21;;;;;;;;;;;8.30;92.80;;;;;;6245881;23;19900;-85
2023/12/16 01:11:46;;;;;;;;;;;8.30;92.70;;;;;;6246145;23;19900;-85
2023/12/16 01:14:13;;;;;;;;;;;8.30;92.60;;;;;;6246752;23;19903;-85
2023/12/16 01:16:38;;;;;;;;;;;8.30;92.70;;;;;;6246743;23;20002;-85
2023/12/16 01:19:04;;;;;;;;;;;8.30;92.80;;;;;;6246231;23;19935;-84
2023/12/16 01:21:29;;;;;;;;;;;8.30;92.70;;;;;;6246674;23;19900;-85
2023/12/16 01:23:55;;;;;;;;;;;8.30;92.70;;;;;;6246839;23;19899;-85
2023/12/16 01:26:20;;;;;;;;;;;8.30;92.70;;;;;;6246743;23;19907;-85
2023/12/16 01:28:46;;;;;;;;;;;8.30;92.70;;;;;;6219322;23;19946;-84
2023/12/16 01:31:11;;;;;;;;;;;8.20;92.60;;;;;;6245815;23;19903;-84
2023/12/16 01:33:37;;;;;;;;;;;8.20;92.80;;;;;;6246788;23;19900;-84
2023/12/16 01:36:03;;;;;;;;;;;8.20;92.80;;;;;;6246450;23;19939;-84
2023/12/16 01:38:29;;;;;;;;;;;8.20;92.80;;;;;;6246075;23;19903;-84
2023/12/16 01:40:54;;;;;;;;;;;8.20;92.80;;;;;;6246261;23;19904;-85
2023/12/16 01:43:20;;;;;;;;;;;8.20;92.60;;;;;;6246345;23;20219;-86
2023/12/16 01:45:46;;;;;;;;;;;8.10;92.60;;;;;;6246169;23;19911;-86
2023/12/16 01:48:12;;;;;;;;;;;8.00;92.70;;;;;;6245872;23;20296;-86
2023/12/16 01:50:38;;;;;;;;;;;7.90;92.70;;;;;;6219381;23;19899;-86
2023/12/16 01:53:04;;;;;;;;;;;7.90;92.70;;;;;;6245563;23;19907;-85
2023/12/16 01:55:30;;;;;;;;;;;7.80;92.80;;;;;;6247650;23;20226;-85
2023/12/16 01:57:56;;;;;;;;;;;7.80;92.80;;;;;;6247533;23;19954;-85
2023/12/16 02:00:23;;;;;;;;;;;7.80;92.90;;;;;;6247818;23;20310;-83
2023/12/16 02:02:49;;;;;;;;;;;7.70;92.90;;;;;;6247945;23;19912;-83
2023/12/16 02:05:15;;;;;;;;;;;7.70;92.90;;;;;;6247756;23;19950;-84
2023/12/16 02:07:40;;;;;;;;;;;7.70;92.90;;;;;;6248015;23;19994;-85
2023/12/16 02:10:06;;;;;;;;;;;7.70;92.80;;;;;;6247554;23;20199;-84
2023/12/16 02:12:33;;;;;;;;;;;7.70;92.70;;;;;;6247899;23;19906;-84
2023/12/16 02:14:59;;;;;;;;;;;7.60;92.70;;;;;;6248058;23;19910;-84
2023/12/16 02:17:24;;;;;;;;;;;7.60;92.70;;;;;;6220930;23;19986;-84
2023/12/16 02:19:52;;;;;;;;;;;7.60;92.60;;;;;;6247740;23;19899;-83
2023/12/16 02:22:18;;;;;;;;;;;7.60;92.80;;;;;;6248183;23;19899;-83
2023/12/16 02:24:43;;;;;;;;;;;7.60;92.70;;;;;;6247744;23;19906;-84
2023/12/16 02:27:09;;;;;;;;;;;7.60;92.60;;;;;;6247691;23;19931;-83
2023/12/16 02:29:34;;;;;;;;;;;7.60;92.70;;;;;;6247608;23;19903;-85
2023/12/16 02:32:00;;;;;;;;;;;7.70;92.60;;;;;;6248509;23;19922;-83
2023/12/16 02:34:26;;;;;;;;;;;7.60;92.50;;;;;;6247917;23;20413;-83
2023/12/16 02:36:52;;;;;;;;;;;7.60;92.50;;;;;;6247705;23;19903;-83
2023/12/16 02:39:18;;;;;;;;;;;7.60;92.50;;;;;;6220597;23;19922;-83
2023/12/16 02:41:44;;;;;;;;;;;7.60;92.60;;;;;;6220886;23;20331;-83
2023/12/16 02:44:09;;;;;;;;;;;7.60;92.50;;;;;;6247758;23;19907;-83
2023/12/16 02:46:35;;;;;;;;;;;7.60;92.50;;;;;;6220981;23;19899;-84
2023/12/16 02:49:00;;;;;;;;;;;7.60;92.30;;;;;;6247769;23;19953;-84
2023/12/16 02:51:26;;;;;;;;;;;7.60;92.30;;;;;;6247633;23;19903;-85
2023/12/16 02:53:53;;;;;;;;;;;7.60;92.20;;;;;;6220977;23;19899;-84
2023/12/16 02:56:18;;;;;;;;;;;7.60;92.30;;;;;;6247652;23;19978;-84
2023/12/16 02:58:44;;;;;;;;;;;7.60;92.40;;;;;;6220569;23;20313;-84
2023/12/16 03:01:09;;;;;;;;;;;7.70;92.40;;;;;;6246861;23;19915;-84
2023/12/16 03:03:38;;;;;;;;;;;7.70;92.40;;;;;;6247349;23;19922;-84
2023/12/16 03:06:07;;;;;;;;;;;7.70;92.30;;;;;;6247760;23;19900;-84
2023/12/16 03:08:35;;;;;;;;;;;7.70;92.10;;;;;;6247538;23;19906;-85
2023/12/16 03:11:01;;;;;;;;;;;7.70;92.10;;;;;;6247747;23;19900;-85
2023/12/16 03:13:27;;;;;;;;;;;7.70;92.10;;;;;;6220553;23;19907;-84
2023/12/16 03:15:52;;;;;;;;;;;7.70;92.00;;;;;;6245646;23;19903;-83
2023/12/16 03:18:18;;;;;;;;;;;7.70;92.00;;;;;;6247356;23;19915;-81
2023/12/16 03:20:44;;;;;;;;;;;7.70;92.00;;;;;;6246997;23;20313;-82
2023/12/16 03:23:09;;;;;;;;;;;7.70;92.00;;;;;;6247320;23;19903;-82
2023/12/16 03:25:37;;;;;;;;;;;7.70;92.00;;;;;;6246991;23;19899;-82
2023/12/16 03:28:05;;;;;;;;;;;7.70;91.90;;;;;;6246752;23;20333;-82
2023/12/16 03:30:31;;;;;;;;;;;7.80;91.80;;;;;;6246885;23;19978;-82
2023/12/16 03:32:56;;;;;;;;;;;7.80;91.80;;;;;;6247334;23;20307;-82
2023/12/16 03:35:22;;;;;;;;;;;7.80;91.60;;;;;;6247304;23;19927;-81
2023/12/16 03:37:48;;;;;;;;;;;7.80;91.60;;;;;;6246475;23;19906;-81
2023/12/16 03:40:13;;;;;;;;;;;7.80;91.50;;;;;;6219922;23;20241;-81
2023/12/16 03:42:39;;;;;;;;;;;7.80;91.30;;;;;;6219828;23;19986;-81
2023/12/16 03:45:04;;;;;;;;;;;7.80;91.10;;;;;;6246704;23;19906;-81
2023/12/16 03:47:31;;;;;;;;;;;7.80;91.20;;;;;;6246640;23;19900;-80
2023/12/16 03:49:56;;;;;;;;;;;7.80;91.30;;;;;;6220246;23;19903;-81
2023/12/16 03:52:22;;;;;;;;;;;7.80;91.30;;;;;;6246730;23;19953;-81
2023/12/16 03:54:48;;;;;;;;;;;7.90;91.30;;;;;;6246609;23;20302;-81
2023/12/16 03:57:13;;;;;;;;;;;7.90;91.30;;;;;;6246651;23;19908;-81
2023/12/16 03:59:39;;;;;;;;;;;7.90;91.30;;;;;;6245980;23;19970;-82
2023/12/16 04:02:04;;;;;;;;;;;7.90;91.40;;;;;;6246084;23;19912;-81
2023/12/16 04:04:32;;;;;;;;;;;7.90;91.40;;;;;;6246562;23;19907;-81
2023/12/16 04:07:00;;;;;;;;;;;7.90;91.20;;;;;;6246767;23;19953;-81
2023/12/16 04:09:29;;;;;;;;;;;7.90;91.20;;;;;;6246585;23;19899;-81
2023/12/16 04:11:54;;;;;;;;;;;7.90;91.10;;;;;;6219634;23;19900;-81
2023/12/16 04:14:20;;;;;;;;;;;7.90;91.00;;;;;;6246606;23;19974;-81
2023/12/16 04:16:46;;;;;;;;;;;7.90;91.00;;;;;;6246172;23;19908;-81
2023/12/16 04:19:12;;;;;;;;;;;7.90;91.00;;;;;;6246291;23;19953;-80
2023/12/16 04:21:37;;;;;;;;;;;7.90;91.00;;;;;;6246515;23;19906;-80
2023/12/16 04:24:03;;;;;;;;;;;7.80;91.10;;;;;;6219320;23;19899;-80
2023/12/16 04:26:29;;;;;;;;;;;7.90;91.20;;;;;;6246693;23;20261;-80
2023/12/16 04:28:54;;;;;;;;;;;7.80;91.10;;;;;;6219378;23;19899;-80
2023/12/16 04:31:20;;;;;;;;;;;7.80;91.10;;;;;;6246709;23;19903;-81
2023/12/16 04:33:45;;;;;;;;;;;7.90;91.00;;;;;;6246393;23;19899;-81
2023/12/16 04:36:15;;;;;;;;;;;7.90;90.90;;;;;;6246591;23;19904;-80
2023/12/16 04:38:41;;;;;;;;;;;7.80;90.90;;;;;;6245801;23;19978;-80
2023/12/16 04:41:06;;;;;;;;;;;7.80;90.80;;;;;;6246005;23;19946;-80
2023/12/16 04:43:32;;;;;;;;;;;7.90;90.70;;;;;;6246237;23;19895;-81
2023/12/16 04:45:59;;;;;;;;;;;7.90;90.60;;;;;;6246230;23;19899;-80
2023/12/16 04:48:25;;;;;;;;;;;7.90;90.50;;;;;;6245985;23;19907;-81
2023/12/16 04:50:50;;;;;;;;;;;7.90;90.50;;;;;;6246402;23;19899;-80
2023/12/16 04:53:16;;;;;;;;;;;7.90;90.40;;;;;;6233790;23;19907;-81
2023/12/16 04:55:41;;;;;;;;;;;7.90;90.30;;;;;;6219741;23;20372;-83
2023/12/16 04:58:07;;;;;;;;;;;7.90;90.20;;;;;;6219560;23;20343;-82
2023/12/16 05:00:32;;;;;;;;;;;7.90;90.20;;;;;;6246474;23;19899;-84
2023/12/16 05:02:59;;;;;;;;;;;7.90;90.20;;;;;;6246495;23;20029;-83
2023/12/16 05:05:24;;;;;;;;;;;7.90;90.10;;;;;;6246238;23;19899;-82
2023/12/16 05:07:50;;;;;;;;;;;8.00;89.90;;;;;;6246242;23;19906;-83
2023/12/16 05:10:15;;;;;;;;;;;7.90;89.70;;;;;;6219745;23;20298;-83
2023/12/16 05:12:41;;;;;;;;;;;8.00;89.90;;;;;;6246497;23;19899;-82
2023/12/16 05:15:07;;;;;;;;;;;7.90;89.60;;;;;;6246118;23;19907;-83
2023/12/16 05:17:32;;;;;;;;;;;7.90;89.90;;;;;;6245767;23;19911;-83
2023/12/16 05:19:58;;;;;;;;;;;8.00;89.50;;;;;;6246129;23;19954;-83
2023/12/16 05:22:24;;;;;;;;;;;7.90;88.90;;;;;;6246273;23;19899;-83
2023/12/16 05:24:50;;;;;;;;;;;7.90;88.40;;;;;;6246119;23;19900;-85
2023/12/16 05:27:15;;;;;;;;;;;7.80;88.80;;;;;;6246710;23;19907;-84
2023/12/16 05:29:41;;;;;;;;;;;7.80;88.70;;;;;;6220451;23;19935;-84
2023/12/16 05:32:06;;;;;;;;;;;7.90;88.80;;;;;;6248584;23;19907;-84
2023/12/16 05:34:32;;;;;;;;;;;7.80;88.10;;;;;;6248728;23;19978;-83
2023/12/16 05:36:58;;;;;;;;;;;7.80;88.80;;;;;;6221559;23;19926;-83
2023/12/16 05:39:24;;;;;;;;;;;7.80;89.30;;;;;;6248863;23;20329;-84
2023/12/16 05:41:49;;;;;;;;;;;7.80;88.80;;;;;;6248734;23;19903;-83
2023/12/16 05:44:15;;;;;;;;;;;7.80;88.80;;;;;;6221441;23;19899;-82
2023/12/16 05:46:40;;;;;;;;;;;7.80;88.60;;;;;;6247955;23;19899;-83
2023/12/16 05:49:06;;;;;;;;;;;7.70;88.90;;;;;;6221550;23;19899;-82
2023/12/16 05:51:41;;;;;;;;;;;7.80;89.20;;;;;;6248070;23;20254;-83
2023/12/16 05:54:08;;;;;;;;;;;7.70;89.30;;;;;;6247865;23;19899;-83
2023/12/16 05:56:33;;;;;;;;;;;7.70;89.30;;;;;;6248035;23;19904;-83
2023/12/16 05:58:59;;;;;;;;;;;7.70;89.50;;;;;;6247930;23;19900;-82
2023/12/16 06:01:24;;;;;;;;;;;7.70;89.30;;;;;;6248028;23;19919;-83
2023/12/16 06:03:50;;;;;;;;;;;7.70;89.50;;;;;;6248249;23;19899;-83
2023/12/16 06:06:16;;;;;;;;;;;7.70;89.60;;;;;;6247639;23;19980;-83
2023/12/16 06:08:41;;;;;;;;;;;7.70;89.60;;;;;;6247988;23;19903;-83
2023/12/16 06:11:13;;;;;;;;;;;7.70;89.70;;;;;;6247869;23;19919;-83
2023/12/16 06:13:39;;;;;;;;;;;7.70;89.80;;;;;;6248148;23;20002;-83
2023/12/16 06:16:08;;;;;;;;;;;7.70;89.50;;;;;;6247649;23;19910;-82
2023/12/16 06:18:34;;;;;;;;;;;7.70;89.60;;;;;;6248031;23;19927;-82
2023/12/16 06:20:59;;;;;;;;;;;7.70;89.50;;;;;;6220159;23;19906;-83
2023/12/16 06:23:26;;;;;;;;;;;7.70;89.50;;;;;;6220868;23;20329;-82
2023/12/16 06:25:52;;;;;;;;;;;7.70;89.70;;;;;;6248140;23;19937;-83
2023/12/16 06:28:17;;;;;;;;;;;7.70;90.00;;;;;;6220855;23;19906;-83
2023/12/16 06:30:43;;;;;;;;;;;7.70;89.40;;;;;;6247825;23;19942;-82
2023/12/16 06:33:08;;;;;;;;;;;7.70;89.40;;;;;;6247551;23;19903;-83
2023/12/16 06:35:34;;;;;;;;;;;7.70;89.60;;;;;;6247704;23;20207;-83
2023/12/16 06:38:00;;;;;;;;;;;7.60;89.60;;;;;;6247966;23;19907;-83
2023/12/16 06:40:27;;;;;;;;;;;7.60;89.80;;;;;;6246942;23;19904;-82
2023/12/16 06:42:53;;;;;;;;;;;7.60;89.60;;;;;;6220847;23;19934;-83
2023/12/16 06:45:19;;;;;;;;;;;7.60;89.50;;;;;;6247561;23;19895;-83
2023/12/16 06:47:44;;;;;;;;;;;7.60;89.60;;;;;;6246261;23;19927;-83
2023/12/16 06:50:10;;;;;;;;;;;7.60;89.80;;;;;;6246830;23;19899;-82
2023/12/16 06:52:35;;;;;;;;;;;7.60;89.70;;;;;;6247237;23;19915;-89
2023/12/16 06:55:01;;;;;;;;;;;7.50;90.00;;;;;;6248676;23;20309;-88
2023/12/16 06:57:26;;;;;;;;;;;7.60;90.10;;;;;;6221311;23;20210;-88
2023/12/16 06:59:52;;;;;;;;;;;7.50;90.00;;;;;;6247874;23;19900;-88
2023/12/16 07:02:17;;;;;;;;;;;7.50;90.00;;;;;;6247277;23;19935;-88
2023/12/16 07:04:43;;;;;;;;;;;7.50;89.90;;;;;;6247496;23;19900;-88
2023/12/16 07:07:09;;;;;;;;;;;7.60;90.00;;;;;;6247712;23;19903;-88
2023/12/16 07:09:34;;;;;;;;;;;7.50;90.10;;;;;;6246579;23;19923;-89
2023/12/16 07:12:00;;;;;;;;;;;7.50;90.10;;;;;;6221476;23;20226;-89
2023/12/16 07:14:27;;;;;;;;;;;7.50;90.10;;;;;;6220697;23;19900;-87
2023/12/16 07:16:53;;;;;;;;;;;7.60;90.10;;;;;;6247718;23;19904;-86
2023/12/16 07:19:19;;;;;;;;;;;7.60;90.20;;;;;;6220352;23;20281;-86
2023/12/16 07:21:44;;;;;;;;;;;7.60;90.30;;;;;;6247438;23;19899;-86
2023/12/16 07:24:10;;;;;;;;;;;7.50;90.10;;;;;;6247123;23;19899;-87
2023/12/16 07:26:35;;;;;;;;;;;7.50;90.20;;;;;;6245546;23;19996;-87
2023/12/16 07:29:01;;;;;;;;;;;7.60;90.20;;;;;;6220889;23;19907;-86
2023/12/16 07:31:26;;;;;;;;;;;7.60;90.30;;;;;;6247727;23;19911;-86
2023/12/16 07:33:52;;;;;;;;;;;7.60;92.10;;;;;;6220380;23;19903;-88
2023/12/16 07:36:18;;;;;;;;;;;7.60;90.60;;;;;;6246836;23;19907;-89
2023/12/16 07:38:44;;;;;;;;;;;7.60;90.40;;;;;;6247418;23;19927;-90
2023/12/16 07:41:09;;;;;;;;;;;7.60;90.20;;;;;;6220365;23;19911;-88
2023/12/16 07:43:35;;;;;;;;;;;7.60;90.10;;;;;;6220775;23;19900;-86
2023/12/16 07:46:01;;;;;;;;;;;7.60;90.10;;;;;;6220359;23;20360;-88
2023/12/16 07:48:26;;;;;;;;;;;7.60;90.00;;;;;;6219984;23;19953;-86
2023/12/16 07:50:53;;;;;;;;;;;7.60;90.00;;;;;;6220211;23;20376;-85
2023/12/16 07:53:22;;;;;;;;;;;7.60;90.10;;;;;;6221044;23;19903;-86
2023/12/16 07:55:48;;;;;;;;;;;7.60;90.10;;;;;;6246777;23;19904;-87
2023/12/16 07:58:14;;;;;;;;;;;7.60;90.00;;;;;;6246312;23;19900;-86
2023/12/16 08:00:40;;;;;;;;;;;7.60;90.10;;;;;;6245618;23;19899;-85
2023/12/16 08:03:06;;;;;;;;;;;7.60;90.10;;;;;;6246263;23;19911;-86
2023/12/16 08:05:31;;;;;;;;;;;7.60;90.10;;;;;;6246826;23;20372;-86
2023/12/16 08:07:57;;;;;;;;;;;7.60;90.00;;;;;;6219344;23;19978;-88
2023/12/16 08:10:22;;;;;;;;;;;7.60;90.10;;;;;;6219848;23;19904;-87
2023/12/16 08:12:48;;;;;;;;;;;7.60;90.10;;;;;;6219892;23;20208;-87
2023/12/16 08:15:13;;;;;;;;;;;7.60;90.00;;;;;;6246619;23;19906;-83
2023/12/16 08:17:39;;;;;;;;;;;7.60;90.00;;;;;;6219256;23;19907;-83
2023/12/16 08:20:05;;;;;;;;;;;7.60;90.00;;;;;;6219024;23;19900;-82
2023/12/16 08:22:31;;;;;;;;;;;7.60;90.10;;;;;;6219660;23;19900;-83
2023/12/16 08:24:57;;;;;;;;;;;7.60;89.70;;;;;;6246481;23;19906;-83
2023/12/16 08:27:23;;;;;;;;;;;7.70;90.10;;;;;;6219216;23;20303;-83
2023/12/16 08:29:49;;;;;;;;;;;7.70;90.10;;;;;;6246584;23;19914;-83
2023/12/16 08:32:15;;;;;;;;;;;7.80;90.10;;;;;;6245071;23;19903;-84
2023/12/16 08:34:40;;;;;;;;;;;7.90;90.00;;;;;;6246300;23;19931;-88
2023/12/16 08:37:06;;;;;;;;;;;7.90;90.00;;;;;;6245071;23;20245;-91
2023/12/16 08:39:32;;;;;;;;;;;8.00;90.00;;;;;;6246518;23;20324;-87
2023/12/16 08:41:57;;;;;;;;;;;8.00;90.10;;;;;;6246769;23;20214;-86
2023/12/16 08:44:23;;;;;;;;;;;8.10;90.00;;;;;;6246834;23;19973;-87
2023/12/16 08:46:48;;;;;;;;;;;8.20;89.40;;;;;;6219910;23;19903;-88
2023/12/16 08:49:14;;;;;;;;;;;8.20;89.10;;;;;;6219785;23;19900;-86
2023/12/16 08:51:39;;;;;;;;;;;8.30;89.20;;;;;;6246889;23;20391;-89
2023/12/16 08:54:05;;;;;;;;;;;8.40;89.40;;;;;;6219979;23;19978;-85
2023/12/16 08:56:30;;;;;;;;;;;8.40;88.80;;;;;;6244350;23;19957;-86
2023/12/16 08:58:56;;;;;;;;;;;8.50;88.90;;;;;;6219428;23;19953;-87
2023/12/16 09:01:22;;;;;;;;;;;8.40;88.80;;;;;;6245735;23;19915;-87
2023/12/16 09:03:47;;;;;;;;;;;8.50;89.20;;;;;;6219417;23;20214;-87
2023/12/16 09:06:13;;;;;;;;;;;8.50;89.30;;;;;;6246891;23;19937;-86
2023/12/16 09:08:38;;;;;;;;;;;8.50;89.20;;;;;;6246580;23;19917;-87
2023/12/16 09:11:04;;;;;;;;;;;8.60;89.50;;;;;;6246862;23;20369;-86
2023/12/16 09:13:30;;;;;;;;;;;8.70;88.90;;;;;;6247076;23;19987;-86
2023/12/16 09:15:55;;;;;;;;;;;8.70;88.80;;;;;;6246333;23;19907;-86
2023/12/16 09:18:21;;;;;;;;;;;8.70;88.90;;;;;;6246630;23;19907;-86
2023/12/16 09:20:46;;;;;;;;;;;8.70;88.80;;;;;;6219399;23;19982;-86
2023/12/16 09:23:12;;;;;;;;;;;8.70;87.30;;;;;;6246223;23;19904;-89
2023/12/16 09:25:37;;;;;;;;;;;8.70;88.40;;;;;;6246346;23;19899;-88
2023/12/16 09:28:03;;;;;;;;;;;8.70;88.40;;;;;;6219509;23;19903;-87
2023/12/16 09:30:29;;;;;;;;;;;8.70;88.30;;;;;;6246362;23;19906;-87
2023/12/16 09:32:54;;;;;;;;;;;8.70;88.40;;;;;;6246722;23;19903;-87
2023/12/16 09:35:20;;;;;;;;;;;8.80;88.80;;;;;;6244820;23;19910;-89
2023/12/16 09:37:45;;;;;;;;;;;8.80;89.00;;;;;;6246140;23;19926;-87
2023/12/16 09:40:11;;;;;;;;;;;8.90;88.70;;;;;;6246898;23;20314;-87
2023/12/16 09:42:37;;;;;;;;;;;9.00;88.10;;;;;;6246599;23;19900;-87
2023/12/16 09:45:03;;;;;;;;;;;9.00;88.70;;;;;;6219849;23;19900;-89
2023/12/16 09:47:29;;;;;;;;;;;9.10;88.10;;;;;;6246229;23;19927;-89
2023/12/16 09:49:58;;;;;;;;;;;9.20;88.30;;;;;;6246098;23;19900;-88
2023/12/16 09:52:24;;;;;;;;;;;9.30;88.20;;;;;;6246525;23;19895;-88
2023/12/16 09:54:50;;;;;;;;;;;9.50;88.10;;;;;;6245055;23;19986;-89
2023/12/16 09:57:19;;;;;;;;;;;9.50;86.10;;;;;;6245233;23;20299;-88
2023/12/16 09:59:57;;;;;;;;;;;9.60;86.50;;;;;;6220673;23;19923;-85
2023/12/16 10:02:27;;;;;;;;;;;9.70;86.40;;;;;;6219003;23;19912;-85
2023/12/16 10:04:55;;;;;;;;;;;9.70;85.50;;;;;;6246138;23;19906;-85
2023/12/16 10:07:21;;;;;;;;;;;9.70;86.00;;;;;;6245617;23;19899;-85
2023/12/16 10:09:47;;;;;;;;;;;9.70;87.00;;;;;;6244857;23;19926;-85
2023/12/16 10:12:13;;;;;;;;;;;9.80;87.50;;;;;;6218540;23;20322;-83
2023/12/16 10:14:46;;;;;;;;;;;9.90;85.70;;;;;;6219159;23;19906;-83
2023/12/16 10:17:12;;;;;;;;;;;10.00;85.60;;;;;;6248694;23;19907;-92
2023/12/16 10:19:38;;;;;;;;;;;10.10;86.10;;;;;;6250100;23;19907;-92
2023/12/16 10:22:03;;;;;;;;;;;10.30;93.30;;;;;;6221633;23;19926;-92
2023/12/16 10:24:29;;;;;;;;;;;10.60;87.40;;;;;;6249414;23;19907;-91
2023/12/16 10:26:54;;;;;;;;;;;10.70;86.90;;;;;;6221643;23;19934;-90
2023/12/16 10:29:20;;;;;;;;;;;10.90;86.00;;;;;;6222892;23;19906;-94
2023/12/16 10:31:46;;;;;;;;;;;11.00;83.10;;;;;;6249499;23;19907;-92
2023/12/16 10:34:11;;;;;;;;;;;11.20;84.10;;;;;;6248295;23;19934;-85
2023/12/16 10:36:37;;;;;;;;;;;11.40;86.00;;;;;;6247619;23;20333;-84
2023/12/16 10:39:02;;;;;;;;;;;11.70;85.90;;;;;;6245680;23;20273;-85
2023/12/16 10:41:28;;;;;;;;;;;12.00;85.40;;;;;;6247155;23;19900;-86
2023/12/16 10:43:54;;;;;;;;;;;12.20;84.00;;;;;;6247050;23;19949;-86
2023/12/16 10:46:20;;;;;;;;;;;12.40;80.30;;;;;;6247603;23;20573;-85
2023/12/16 10:48:50;;;;;;;;;;;12.50;81.60;;;;;;6220773;23;19943;-85
2023/12/16 10:51:16;;;;;;;;;;;12.60;81.20;;;;;;6220682;23;19900;-83
2023/12/16 10:53:44;;;;;;;;;;;12.70;78.10;;;;;;6247619;23;19922;-83
2023/12/16 10:56:17;;;;;;;;;;;12.80;79.50;;;;;;6247423;23;19907;-83
2023/12/16 10:58:58;;;;;;;;;;;12.90;79.30;;;;;;6247788;23;19899;-83
2023/12/16 11:01:28;;;;;;;;;;;13.10;79.50;;;;;;6247574;23;19978;-85
2023/12/16 11:04:11;;;;;;;;;;;13.20;78.70;;;;;;6220895;23;19986;-85
2023/12/16 11:06:59;;;;;;;;;;;13.30;79.50;;;;;;6246650;23;19957;-83
2023/12/16 11:09:25;;;;;;;;;;;13.50;79.40;;;;;;6246834;23;19911;-83
2023/12/16 11:11:51;;;;;;;;;;;13.70;75.20;;;;;;6246744;23;19899;-82
2023/12/16 11:14:17;;;;;;;;;;;13.70;74.10;;;;;;6246715;23;19900;-82
2023/12/16 11:16:58;;;;;;;;;;;13.60;74.70;;;;;;6246487;23;19926;-82
2023/12/16 11:19:28;;;;;;;;;;;13.60;75.50;;;;;;6246863;23;20084;-82
2023/12/16 11:21:54;;;;;;;;;;;13.70;77.30;;;;;;6246940;23;19906;-82
2023/12/16 11:24:20;;;;;;;;;;;13.90;77.20;;;;;;6246499;23;19904;-82
2023/12/16 11:26:52;;;;;;;;;;;14.10;77.90;;;;;;6245007;23;19967;-82
2023/12/16 11:29:23;;;;;;;;;;;14.40;78.10;;;;;;6242528;23;20338;-82
2023/12/16 11:31:57;;;;;;;;;;;14.60;77.60;;;;;;6246533;23;19900;-82
2023/12/16 11:34:41;;;;;;;;;;;14.80;75.80;;;;;;6246491;23;19978;-82
2023/12/16 11:37:07;;;;;;;;;;;15.10;76.50;;;;;;6219621;23;20297;-82
2023/12/16 11:39:40;;;;;;;;;;;15.60;74.90;;;;;;6219252;23;19923;-82
2023/12/16 11:42:06;;;;;;;;;;;16.30;73.70;;;;;;6245943;23;19906;-82
2023/12/16 11:44:50;;;;;;;;;;;17.40;71.70;;;;;;6246537;23;19950;-82
2023/12/16 11:47:26;;;;;;;;;;;18.60;66.40;;;;;;6246689;23;19922;-82
2023/12/16 11:52:51;;;;;;;;;;;20.60;63.30;;;;;;6325937;22;19922;-85
2023/12/16 11:55:18;;;;;;;;;;;21.50;59.90;;;;;;6338916;22;19902;-84
2023/12/16 11:57:46;;;;;;;;;;;22.20;57.30;;;;;;6310838;22;19924;-84
2023/12/16 12:00:13;;;;;;;;;;;22.60;56.60;;;;;;6325743;22;19961;-82
2023/12/16 12:02:39;;;;;;;;;;;23.10;55.60;;;;;;6276494;22;20329;-83
2023/12/16 12:05:11;;;;;;;;;;;23.50;54.80;;;;;;6276962;22;19906;-82
2023/12/16 12:07:36;;;;;;;;;;;23.70;52.90;;;;;;6276451;22;19907;-82
2023/12/16 12:10:02;;;;;;;;;;;24.00;52.50;;;;;;6276344;22;19899;-82
2023/12/16 12:12:28;;;;;;;;;;;24.10;50.80;;;;;;6275823;22;19977;-82
2023/12/16 12:14:53;;;;;;;;;;;24.00;50.30;;;;;;6276304;22;20225;-82
2023/12/16 12:17:19;;;;;;;;;;;24.00;49.90;;;;;;6276180;22;19950;-82
2023/12/16 12:19:45;;;;;;;;;;;24.10;48.00;;;;;;6276362;22;19906;-82
2023/12/16 12:22:11;;;;;;;;;;;24.00;49.00;;;;;;6276037;22;19899;-82
2023/12/16 12:24:36;;;;;;;;;;;24.00;48.60;;;;;;6276074;22;19910;-82
2023/12/16 12:27:02;;;;;;;;;;;23.80;47.30;;;;;;6276051;22;19906;-81
2023/12/16 12:29:48;;;;;;;;;;;23.50;48.60;;;;;;6275843;22;19899;-81
2023/12/16 12:32:14;;;;;;;;;;;23.20;49.30;;;;;;6248284;22;20309;-82
2023/12/16 12:34:40;;;;;;;;;;;23.00;49.40;;;;;;6276432;22;19899;-82
2023/12/16 12:37:05;;;;;;;;;;;22.80;49.50;;;;;;6274726;22;20400;-82
2023/12/16 12:39:31;;;;;;;;;;;22.50;49.40;;;;;;6277008;22;19899;-82
2023/12/16 12:42:00;;;;;;;;;;;22.20;50.40;;;;;;6276553;22;19981;-82
2023/12/16 12:44:26;;;;;;;;;;;21.90;50.20;;;;;;6276764;22;20305;-82
2023/12/16 12:46:51;;;;;;;;;;;21.60;50.10;;;;;;6248568;22;19906;-83
2023/12/16 12:49:18;;;;;;;;;;;21.40;51.20;;;;;;6276926;22;19986;-83
2023/12/16 12:51:51;;;;;;;;;;;21.20;51.90;;;;;;6277370;22;20294;-83
2023/12/16 12:54:16;;;;;;;;;;;21.20;51.80;;;;;;6273164;22;19900;-82
2023/12/16 12:56:42;;;;;;;;;;;21.20;51.60;;;;;;6275607;22;19914;-82
2023/12/16 12:59:07;;;;;;;;;;;21.20;51.40;;;;;;6276631;22;19974;-83
2023/12/16 13:01:33;;;;;;;;;;;21.20;51.70;;;;;;6276551;22;20305;-82
2023/12/16 13:03:59;;;;;;;;;;;21.10;51.60;;;;;;6275685;22;19899;-82
2023/12/16 13:06:24;;;;;;;;;;;21.10;51.20;;;;;;6275828;22;20268;-82
2023/12/16 13:08:50;;;;;;;;;;;20.90;50.00;;;;;;6275884;22;19933;-82
2023/12/16 13:11:16;;;;;;;;;;;20.70;50.30;;;;;;6276484;22;19970;-84
2023/12/16 13:13:41;;;;;;;;;;;20.50;51.90;;;;;;6276267;22;19998;-83
2023/12/16 13:16:09;;;;;;;;;;;20.20;52.10;;;;;;6249319;22;19911;-83
2023/12/16 13:18:40;;;;;;;;;;;20.00;52.60;;;;;;6276306;22;19923;-83
2023/12/16 13:21:06;;;;;;;;;;;19.80;52.20;;;;;;6276343;22;19903;-83
2023/12/16 13:23:32;;;;;;;;;;;19.40;51.10;;;;;;6276237;22;19978;-83
2023/12/16 13:25:58;;;;;;;;;;;18.80;53.10;;;;;;6276920;22;20340;-83
2023/12/16 13:28:23;;;;;;;;;;;18.40;54.00;;;;;;6277034;22;19949;-83
2023/12/16 13:30:52;;;;;;;;;;;17.90;54.30;;;;;;6276754;22;20367;-83
2023/12/16 13:33:20;;;;;;;;;;;17.40;54.90;;;;;;6276684;22;19903;-83
2023/12/16 13:35:47;;;;;;;;;;;16.90;56.00;;;;;;6276458;22;19903;-82
2023/12/16 13:38:13;;;;;;;;;;;16.50;57.10;;;;;;6276662;22;20374;-82
2023/12/16 13:40:38;;;;;;;;;;;16.20;57.00;;;;;;6276470;22;19973;-82
2023/12/16 13:43:04;;;;;;;;;;;15.80;58.10;;;;;;6276980;22;19899;-82
2023/12/16 13:45:30;;;;;;;;;;;15.50;59.20;;;;;;6276801;22;19899;-82
2023/12/16 13:47:56;;;;;;;;;;;15.40;60.00;;;;;;6249346;22;19906;-82
2023/12/16 13:50:21;;;;;;;;;;;15.30;60.40;;;;;;6251137;22;19990;-81
2023/12/16 13:52:50;;;;;;;;;;;15.10;61.10;;;;;;6278716;22;20293;-81
2023/12/16 13:55:16;;;;;;;;;;;15.00;61.30;;;;;;6278791;22;19974;-81
2023/12/16 13:57:42;;;;;;;;;;;14.90;61.30;;;;;;6278535;22;19918;-81
2023/12/16 14:00:08;;;;;;;;;;;14.70;61.50;;;;;;6278468;22;19903;-81
2023/12/16 14:02:34;;;;;;;;;;;14.60;62.40;;;;;;6277583;22;20328;-81
2023/12/16 14:05:01;;;;;;;;;;;14.60;62.60;;;;;;6278246;22;19926;-81
2023/12/16 14:07:28;;;;;;;;;;;14.50;63.20;;;;;;6278120;22;19910;-81
2023/12/16 14:09:54;;;;;;;;;;;14.30;62.90;;;;;;6278704;22;19951;-81
2023/12/16 14:12:19;;;;;;;;;;;14.20;63.40;;;;;;6278243;22;19937;-81
2023/12/16 14:14:45;;;;;;;;;;;14.10;63.20;;;;;;6276681;22;20025;-81
2023/12/16 14:17:10;;;;;;;;;;;14.10;63.50;;;;;;6277824;22;19985;-81
2023/12/16 14:19:36;;;;;;;;;;;14.00;64.50;;;;;;6278241;22;19899;-81
2023/12/16 14:22:01;;;;;;;;;;;13.90;64.30;;;;;;6277679;22;20287;-81
2023/12/16 14:24:27;;;;;;;;;;;13.90;64.40;;;;;;6250709;22;19914;-81